Time;durP1;ratioP1;P1;durP2;ratioP2;P2;SDS_P1;SDS_P2;PMS_P1;PMS_P2;Temp;Humidity;BMP_temperature;BMP_pressure;BME280_temperature;BME280_humidity;BME280_pressure;Samples;Min_cycle;Max_cycle;Signal;HPM_P1;HPM_P2
2022/10/19 00:02:21;;;;;;;72.78;19.90;;;4.70;99.90;;;;;;5039477;28;20065;-72
2022/10/19 00:04:48;;;;;;;49.88;17.55;;;4.70;99.90;;;;;;5041745;28;20075;-72
2022/10/19 00:07:15;;;;;;;88.72;21.77;;;4.70;99.90;;;;;;5041138;28;20041;-72
2022/10/19 00:09:43;;;;;;;63.45;19.42;;;4.70;99.90;;;;;;5040900;28;20537;-72
2022/10/19 00:12:11;;;;;;;53.90;18.60;;;4.70;99.90;;;;;;5038923;28;20056;-73
2022/10/19 00:14:38;;;;;;;62.70;22.33;;;4.90;99.90;;;;;;5045926;28;20044;-72
2022/10/19 00:17:04;;;;;;;48.28;19.20;;;4.80;99.90;;;;;;5033621;28;20071;-73
2022/10/19 00:19:31;;;;;;;57.92;21.42;;;4.80;99.90;;;;;;5038565;28;20037;-72
2022/10/19 00:21:58;;;;;;;60.95;20.27;;;4.80;99.90;;;;;;5040243;28;20147;-73
2022/10/19 00:24:24;;;;;;;63.67;22.35;;;4.80;99.90;;;;;;5037366;28;20041;-72
2022/10/19 00:26:51;;;;;;;83.93;24.08;;;4.70;99.90;;;;;;5036041;28;20087;-72
2022/10/19 00:29:18;;;;;;;63.58;17.67;;;4.70;99.90;;;;;;5039282;28;20124;-72
2022/10/19 00:31:44;;;;;;;33.38;15.07;;;4.60;99.90;;;;;;5038356;28;20044;-72
2022/10/19 00:34:11;;;;;;;43.92;15.68;;;4.60;99.90;;;;;;5040035;28;20045;-72
2022/10/19 00:36:40;;;;;;;34.22;14.23;;;4.70;99.90;;;;;;5038294;28;20048;-72
2022/10/19 00:39:11;;;;;;;48.88;16.77;;;4.50;99.90;;;;;;5032849;28;20475;-72
2022/10/19 00:41:38;;;;;;;53.50;15.93;;;4.50;99.90;;;;;;5038405;28;20541;-72
2022/10/19 00:44:25;;;;;;;46.60;15.88;;;4.50;99.90;;;;;;5035345;28;20049;-72
2022/10/19 00:46:52;;;;;;;58.67;16.17;;;4.50;99.90;;;;;;5035974;28;20044;-72
2022/10/19 00:49:24;;;;;;;85.00;17.25;;;4.50;99.90;;;;;;5038852;28;20060;-72
2022/10/19 00:51:57;;;;;;;61.40;16.17;;;4.60;99.90;;;;;;5034153;28;20132;-72
2022/10/19 00:54:24;;;;;;;348.92;41.80;;;4.50;99.90;;;;;;5036528;28;20333;-72
2022/10/19 00:56:53;;;;;;;90.90;20.95;;;4.40;99.90;;;;;;5037411;28;20502;-72
2022/10/19 00:59:22;;;;;;;91.35;19.80;;;4.50;99.90;;;;;;5039622;28;20071;-72
2022/10/19 01:01:49;;;;;;;108.68;20.90;;;4.40;99.90;;;;;;5041879;28;20191;-72
2022/10/19 01:04:17;;;;;;;73.93;17.48;;;4.40;99.90;;;;;;5039190;28;21233;-72
2022/10/19 01:06:43;;;;;;;54.40;15.35;;;4.40;99.90;;;;;;5036992;28;20044;-72
2022/10/19 01:09:10;;;;;;;46.63;15.93;;;4.40;99.90;;;;;;5040029;28;20645;-72
2022/10/19 01:12:02;;;;;;;39.30;14.07;;;4.50;99.90;;;;;;5036563;28;20418;-72
2022/10/19 01:14:55;;;;;;;63.10;15.48;;;4.60;99.90;;;;;;5042551;28;20136;-72
2022/10/19 01:17:30;;;;;;;58.65;15.32;;;4.60;99.90;;;;;;5036365;28;20048;-72
2022/10/19 01:20:06;;;;;;;71.32;16.80;;;4.60;99.90;;;;;;5037034;28;20056;-72
2022/10/19 01:22:42;;;;;;;129.30;20.05;;;4.50;99.90;;;;;;5037629;28;20051;-72
2022/10/19 01:25:21;;;;;;;91.03;16.85;;;4.60;99.90;;;;;;5033936;28;20049;-73
2022/10/19 01:28:06;;;;;;;110.15;17.58;;;4.60;99.90;;;;;;5034887;28;20091;-72
2022/10/19 01:30:36;;;;;;;;;;;4.60;99.90;;;;;;5039150;28;20049;-72
2022/10/19 01:33:19;;;;;;;95.45;15.73;;;4.50;99.90;;;;;;5039995;28;20014;-72
2022/10/19 01:35:50;;;;;;;161.80;22.45;;;4.40;99.90;;;;;;5035445;28;20045;-72
2022/10/19 01:38:48;;;;;;;108.32;18.52;;;4.40;99.90;;;;;;5036575;28;20049;-72
2022/10/19 01:41:19;;;;;;;61.00;15.63;;;4.40;99.90;;;;;;5034892;28;20037;-72
2022/10/19 01:44:01;;;;;;;108.13;20.25;;;4.40;99.90;;;;;;5040233;28;20041;-73
2022/10/19 01:46:38;;;;;;;148.98;21.30;;;4.50;99.90;;;;;;5044582;28;20029;-72
2022/10/19 01:49:34;;;;;;;62.53;15.48;;;4.50;99.90;;;;;;5037447;28;20052;-72
2022/10/19 01:52:05;;;;;;;65.97;15.23;;;4.40;99.90;;;;;;5035929;28;20620;-72
2022/10/19 01:54:37;;;;;;;330.70;39.00;;;4.40;99.90;;;;;;5018986;28;20481;-72
2022/10/19 01:57:07;;;;;;;72.93;17.55;;;4.40;99.90;;;;;;5031996;28;20064;-73
2022/10/19 01:59:36;;;;;;;43.13;15.35;;;4.40;99.90;;;;;;5037040;28;20052;-73
2022/10/19 02:02:05;;;;;;;45.65;15.07;;;4.30;99.90;;;;;;5037039;28;20563;-72
2022/10/19 02:04:35;;;;;;;47.22;14.50;;;4.20;99.90;;;;;;5037177;28;20210;-72
2022/10/19 02:07:04;;;;;;;70.53;17.05;;;4.30;99.90;;;;;;5035108;28;20048;-72
2022/10/19 02:09:32;;;;;;;82.60;19.70;;;4.30;99.90;;;;;;5035844;28;20048;-72
2022/10/19 02:12:04;;;;;;;113.90;22.38;;;4.30;99.90;;;;;;5034337;28;20041;-72
2022/10/19 02:14:39;;;;;;;217.90;33.65;;;4.30;99.90;;;;;;5034700;28;20056;-72
2022/10/19 02:17:08;;;;;;;;;;;4.30;99.90;;;;;;5037520;28;20297;-72
2022/10/19 02:19:35;;;;;;;107.20;22.27;;;4.40;99.90;;;;;;5040931;28;19959;-72
2022/10/19 02:22:02;;;;;;;135.32;23.23;;;4.40;99.90;;;;;;5035225;28;20436;-72
2022/10/19 02:24:29;;;;;;;111.45;21.15;;;4.40;99.90;;;;;;5038430;28;20109;-72
2022/10/19 02:26:56;;;;;;;144.45;22.92;;;4.60;99.90;;;;;;5045005;28;20033;-73
2022/10/19 02:29:22;;;;;;;115.45;20.90;;;4.50;99.90;;;;;;5035524;28;20040;-72
2022/10/19 02:31:49;;;;;;;114.38;21.17;;;4.60;99.90;;;;;;5033115;28;20041;-72
2022/10/19 02:34:16;;;;;;;115.28;22.23;;;4.50;99.90;;;;;;5063263;22;20304;-77
2022/10/19 02:36:45;;;;;;;133.82;25.67;;;4.40;99.90;;;;;;5032442;28;20037;-76
2022/10/19 02:39:12;;;;;;;160.30;24.40;;;4.50;99.90;;;;;;5010772;28;20075;-76
2022/10/19 02:41:59;;;;;;;96.32;20.33;;;4.60;99.90;;;;;;5025057;28;20592;-76
2022/10/19 02:44:47;;;;;;;172.93;25.55;;;4.70;99.90;;;;;;5036771;28;20051;-76
2022/10/19 02:47:19;;;;;;;120.15;22.27;;;4.80;99.90;;;;;;5013348;28;20094;-76
2022/10/19 02:49:47;;;;;;;134.75;23.50;;;4.80;99.90;;;;;;5027372;28;20052;-76
2022/10/19 02:52:14;;;;;;;103.97;21.10;;;4.70;99.90;;;;;;5006859;28;20410;-78
2022/10/19 02:54:43;;;;;;;126.03;24.40;;;4.80;99.90;;;;;;5036725;28;20170;-78
2022/10/19 02:57:28;;;;;;;89.88;20.83;;;4.60;99.90;;;;;;5024257;28;20122;-76
2022/10/19 02:59:54;;;;;;;145.50;25.23;;;4.70;99.90;;;;;;5035688;28;20095;-76
2022/10/19 03:02:22;;;;;;;79.18;20.00;;;4.60;99.90;;;;;;5021631;28;20282;-77
2022/10/19 03:04:48;;;;;;;70.90;18.30;;;4.70;99.90;;;;;;5021173;28;20474;-76
2022/10/19 03:07:18;;;;;;;154.93;26.85;;;4.80;99.90;;;;;;5017387;28;20440;-76
2022/10/19 03:09:45;;;;;;;231.80;31.17;;;4.90;99.90;;;;;;5037585;28;20052;-76
2022/10/19 03:12:12;;;;;;;135.25;23.42;;;4.70;99.90;;;;;;5031291;28;20067;-76
2022/10/19 03:14:39;;;;;;;133.02;24.90;;;4.70;99.90;;;;;;5016013;28;20063;-76
2022/10/19 03:17:07;;;;;;;104.20;22.98;;;4.80;99.90;;;;;;5042624;28;20203;-77
2022/10/19 03:19:34;;;;;;;98.53;21.60;;;4.70;99.90;;;;;;5034906;28;20048;-76
2022/10/19 03:22:02;;;;;;;62.60;20.10;;;4.80;99.90;;;;;;5028785;28;20033;-77
2022/10/19 03:24:30;;;;;;;86.20;22.13;;;5.00;99.90;;;;;;5020070;28;20037;-77
2022/10/19 03:26:57;;;;;;;68.60;20.67;;;5.00;99.90;;;;;;5031049;28;21227;-78
2022/10/19 03:29:24;;;;;;;125.05;27.80;;;4.90;99.90;;;;;;5027765;28;20099;-77
2022/10/19 03:31:50;;;;;;;106.80;22.40;;;4.90;99.90;;;;;;5030488;28;20053;-77
2022/10/19 03:34:17;;;;;;;93.88;22.30;;;4.80;99.90;;;;;;5037572;28;20071;-77
2022/10/19 03:36:47;;;;;;;100.53;21.40;;;4.80;99.90;;;;;;5047891;28;20041;-77
2022/10/19 03:39:15;;;;;;;60.70;19.48;;;4.80;99.90;;;;;;5042712;28;20050;-77
2022/10/19 03:41:42;;;;;;;54.55;19.33;;;4.90;99.90;;;;;;5044579;28;20725;-78
2022/10/19 03:44:35;;;;;;;51.08;18.45;;;4.80;99.90;;;;;;5056631;28;20103;-77
2022/10/19 03:47:13;;;;;;;149.57;25.55;;;4.80;99.90;;;;;;5018208;28;20052;-77
2022/10/19 03:49:42;;;;;;;325.27;44.17;;;4.70;99.90;;;;;;5034291;28;20474;-77
2022/10/19 03:52:08;;;;;;;121.28;24.67;;;4.70;99.90;;;;;;5025889;28;20051;-77
2022/10/19 03:54:35;;;;;;;97.05;23.73;;;4.70;99.90;;;;;;5052180;28;20202;-77
2022/10/19 03:57:04;;;;;;;182.90;28.25;;;4.70;99.90;;;;;;5033224;28;21201;-77
2022/10/19 03:59:31;;;;;;;118.93;25.67;;;4.70;99.90;;;;;;5034469;28;20136;-77
2022/10/19 04:01:58;;;;;;;94.18;23.05;;;4.70;99.90;;;;;;5034455;28;20289;-78
2022/10/19 04:04:24;;;;;;;113.75;25.58;;;4.60;99.90;;;;;;5022669;28;20048;-77
2022/10/19 04:06:52;;;;;;;83.50;23.45;;;4.60;99.90;;;;;;5026712;28;20255;-78
2022/10/19 04:09:21;;;;;;;92.97;24.05;;;4.50;99.90;;;;;;5030927;28;20049;-77
2022/10/19 04:11:49;;;;;;;62.38;20.80;;;4.40;99.90;;;;;;5029603;28;20544;-77
2022/10/19 04:14:18;;;;;;;73.55;24.20;;;4.40;99.90;;;;;;5035564;28;20055;-77
2022/10/19 04:17:00;;;;;;;72.25;24.00;;;4.40;99.90;;;;;;5032162;28;20068;-77
2022/10/19 04:19:27;;;;;;;56.72;22.45;;;4.40;99.90;;;;;;5044665;28;20055;-77
2022/10/19 04:21:54;;;;;;;62.67;22.85;;;4.40;99.90;;;;;;5026875;28;20070;-77
2022/10/19 04:24:22;;;;;;;72.07;24.48;;;4.60;99.90;;;;;;5042606;28;20064;-77
2022/10/19 04:26:52;;;;;;;72.35;22.92;;;4.70;99.90;;;;;;5014867;28;20060;-78
2022/10/19 04:29:21;;;;;;;80.15;24.77;;;4.80;99.90;;;;;;5034613;28;20124;-78
2022/10/19 04:31:52;;;;;;;85.07;33.33;;;4.70;99.90;;;;;;5013710;28;20134;-77
2022/10/19 04:34:19;;;;;;;50.63;22.20;;;4.70;99.90;;;;;;5032549;28;20032;-77
2022/10/19 04:36:46;;;;;;;89.15;23.98;;;4.70;99.90;;;;;;5006877;28;20045;-77
2022/10/19 04:39:12;;;;;;;85.22;23.13;;;4.80;99.90;;;;;;5020309;28;20197;-77
2022/10/19 04:41:39;;;;;;;107.57;24.75;;;4.60;99.90;;;;;;5029148;28;20561;-77
2022/10/19 04:44:06;;;;;;;74.03;23.70;;;4.60;99.90;;;;;;5039018;28;20090;-77
2022/10/19 04:46:33;;;;;;;71.35;22.80;;;4.60;99.90;;;;;;5031539;28;20045;-77
2022/10/19 04:49:04;;;;;;;51.95;20.27;;;4.60;99.90;;;;;;5020992;28;20093;-77
2022/10/19 04:51:31;;;;;;;77.18;23.27;;;4.60;99.90;;;;;;5023119;28;20118;-77
2022/10/19 04:53:57;;;;;;;69.28;24.30;;;4.70;99.90;;;;;;5018161;28;20608;-78
2022/10/19 04:56:26;;;;;;;61.97;23.73;;;4.80;99.90;;;;;;5019742;28;20219;-78
2022/10/19 04:58:55;;;;;;;67.15;32.28;;;4.80;99.90;;;;;;5040625;28;20085;-78
2022/10/19 05:01:23;;;;;;;96.80;44.40;;;4.80;99.90;;;;;;5021972;28;20068;-77
2022/10/19 05:03:55;;;;;;;55.97;29.58;;;4.80;99.90;;;;;;5017622;28;20072;-77
2022/10/19 05:06:23;;;;;;;56.67;27.48;;;4.90;99.90;;;;;;5032627;28;20695;-77
2022/10/19 05:08:50;;;;;;;63.60;30.27;;;5.00;99.90;;;;;;5024736;28;20052;-77
2022/10/19 05:11:18;;;;;;;51.15;23.80;;;5.00;99.90;;;;;;5023464;28;20040;-78
2022/10/19 05:13:46;;;;;;;54.50;22.50;;;5.10;99.90;;;;;;5040101;28;20113;-78
2022/10/19 05:16:16;;;;;;;58.15;24.25;;;5.10;99.90;;;;;;5038232;28;20044;-78
2022/10/19 05:18:50;;;;;;;55.38;25.02;;;5.10;99.90;;;;;;5019034;28;20075;-78
2022/10/19 05:21:19;;;;;;;51.15;21.45;;;5.20;99.90;;;;;;5008940;28;20299;-77
2022/10/19 05:23:46;;;;;;;52.55;23.15;;;5.20;99.90;;;;;;5036347;28;20052;-78
2022/10/19 05:26:16;;;;;;;44.70;19.45;;;5.40;99.90;;;;;;5008837;28;20075;-78
2022/10/19 05:28:58;;;;;;;48.97;21.27;;;5.30;99.90;;;;;;5038582;28;20049;-77
2022/10/19 05:31:28;;;;;;;47.38;20.55;;;5.40;99.90;;;;;;5035984;28;20452;-77
2022/10/19 05:33:55;;;;;;;42.83;20.45;;;5.50;99.90;;;;;;5039332;28;20051;-78
2022/10/19 05:36:33;;;;;;;40.22;21.50;;;5.40;99.90;;;;;;5030162;28;20515;-78
2022/10/19 05:39:04;;;;;;;45.38;22.20;;;5.50;99.90;;;;;;5037235;28;20063;-78
2022/10/19 05:41:31;;;;;;;44.67;21.30;;;5.50;99.90;;;;;;5028104;28;20037;-77
2022/10/19 05:44:00;;;;;;;38.17;20.48;;;5.70;99.90;;;;;;5020472;28;20029;-78
2022/10/19 05:46:29;;;;;;;43.58;23.35;;;5.70;99.90;;;;;;5033999;28;20262;-77
2022/10/19 05:48:57;;;;;;;38.33;20.30;;;5.60;99.90;;;;;;5036669;28;20416;-78
2022/10/19 05:51:25;;;;;;;37.25;18.75;;;5.60;99.90;;;;;;5035211;28;20461;-77
2022/10/19 05:53:53;;;;;;;41.75;21.23;;;5.80;99.90;;;;;;5023877;28;20133;-78
2022/10/19 05:56:23;;;;;;;34.83;18.88;;;5.90;99.90;;;;;;5037440;28;20124;-77
2022/10/19 05:58:50;;;;;;;27.50;17.38;;;5.90;99.90;;;;;;5029174;28;20075;-77
2022/10/19 06:01:18;;;;;;;34.47;16.95;;;5.80;99.90;;;;;;5048286;28;20136;-78
2022/10/19 06:03:49;;;;;;;29.50;16.80;;;5.80;99.90;;;;;;5033880;28;20039;-78
2022/10/19 06:06:16;;;;;;;30.45;18.08;;;5.90;99.90;;;;;;5036829;28;20417;-78
2022/10/19 06:08:44;;;;;;;31.08;18.02;;;6.00;99.90;;;;;;5030695;28;20048;-78
2022/10/19 06:11:14;;;;;;;33.03;17.77;;;6.10;99.90;;;;;;5034500;28;20037;-78
2022/10/19 06:13:43;;;;;;;29.58;16.65;;;6.10;99.90;;;;;;5040062;28;20478;-78
2022/10/19 06:16:12;;;;;;;28.35;15.90;;;6.10;99.90;;;;;;5019703;28;20472;-76
2022/10/19 06:18:39;;;;;;;31.67;18.63;;;6.20;99.90;;;;;;5040237;28;20049;-76
2022/10/19 06:21:09;;;;;;;34.35;18.75;;;6.20;99.90;;;;;;5041449;28;20132;-77
2022/10/19 06:23:36;;;;;;;30.50;18.13;;;6.40;99.90;;;;;;5042440;28;20040;-76
2022/10/19 06:26:11;;;;;;;49.65;19.25;;;6.50;99.90;;;;;;5043569;28;20036;-77
2022/10/19 06:28:40;;;;;;;35.17;19.00;;;6.50;99.90;;;;;;5064074;28;20096;-76
2022/10/19 06:31:07;;;;;;;29.92;17.85;;;6.50;99.90;;;;;;5055460;28;20061;-77
2022/10/19 06:33:35;;;;;;;31.60;17.90;;;6.60;99.90;;;;;;5046082;28;20147;-77
2022/10/19 06:36:35;;;;;;;36.88;18.80;;;6.70;99.90;;;;;;5035910;28;20045;-77
2022/10/19 06:39:02;;;;;;;34.92;18.90;;;6.70;99.90;;;;;;5041914;28;20049;-77
2022/10/19 06:41:30;;;;;;;37.85;20.02;;;6.70;99.90;;;;;;5023698;28;20083;-77
2022/10/19 06:44:11;;;;;;;36.08;20.38;;;6.80;99.90;;;;;;5024955;28;20115;-76
2022/10/19 06:46:38;;;;;;;31.77;18.13;;;6.90;99.90;;;;;;5038963;28;20079;-77
2022/10/19 06:49:05;;;;;;;26.50;16.88;;;7.00;99.90;;;;;;5021784;28;20041;-77
2022/10/19 06:51:33;;;;;;;32.67;18.58;;;7.00;99.90;;;;;;5038387;28;20450;-77
2022/10/19 06:53:59;;;;;;;25.55;16.95;;;7.10;99.90;;;;;;5024427;28;20607;-77
2022/10/19 06:56:26;;;;;;;24.60;15.85;;;7.20;99.90;;;;;;5024302;28;20049;-77
2022/10/19 06:58:54;;;;;;;35.38;17.75;;;7.40;99.90;;;;;;5035415;28;20124;-77
2022/10/19 07:01:21;;;;;;;33.53;20.85;;;7.40;99.90;;;;;;5018559;28;20064;-77
2022/10/19 07:03:52;;;;;;;31.55;19.15;;;7.40;99.90;;;;;;5036443;28;20047;-77
2022/10/19 07:06:20;;;;;;;29.23;18.83;;;7.60;99.90;;;;;;5021987;28;20041;-77
2022/10/19 07:08:47;;;;;;;34.35;19.00;;;7.70;99.90;;;;;;5034572;28;20102;-77
2022/10/19 07:11:17;;;;;;;27.30;18.92;;;7.70;99.90;;;;;;5038275;28;20049;-77
2022/10/19 07:13:44;;;;;;;29.63;18.27;;;7.80;99.90;;;;;;5041284;28;20526;-77
2022/10/19 07:16:14;;;;;;;30.88;17.98;;;7.80;99.90;;;;;;5026181;28;20508;-77
2022/10/19 07:18:48;;;;;;;24.60;16.65;;;7.80;99.90;;;;;;5038468;28;20048;-77
2022/10/19 07:23:54;;;;;;;25.52;17.75;;;7.90;99.90;;;;;;5091870;27;20136;-74
2022/10/19 07:26:26;;;;;;;24.92;17.88;;;8.00;99.90;;;;;;5047924;28;20563;-74
2022/10/19 07:28:55;;;;;;;27.98;18.52;;;8.10;99.90;;;;;;5012854;28;20399;-74
2022/10/19 07:31:24;;;;;;;26.67;20.33;;;8.20;99.90;;;;;;5028418;28;20091;-73
2022/10/19 07:34:00;;;;;;;22.77;18.73;;;8.30;99.90;;;;;;5024207;28;20137;-73
2022/10/19 07:36:29;;;;;;;28.52;20.42;;;8.30;99.90;;;;;;5028874;28;20048;-74
2022/10/19 07:38:56;;;;;;;20.63;18.55;;;8.30;99.90;;;;;;5032939;28;20413;-74
2022/10/19 07:41:24;;;;;;;23.65;18.30;;;8.50;99.90;;;;;;5037367;28;20429;-73
2022/10/19 07:43:52;;;;;;;19.67;17.58;;;8.70;99.90;;;;;;5046332;28;20083;-74
2022/10/19 07:46:24;;;;;;;23.00;16.73;;;8.80;99.90;;;;;;5032834;28;20554;-73
2022/10/19 07:48:51;;;;;;;25.70;17.20;;;8.90;99.90;;;;;;5034225;28;20608;-73
2022/10/19 07:51:18;;;;;;;22.77;17.75;;;9.10;99.90;;;;;;5036715;28;20567;-73
2022/10/19 07:53:45;;;;;;;23.40;17.88;;;9.10;99.90;;;;;;5034611;28;20056;-73
2022/10/19 07:56:18;;;;;;;35.95;18.58;;;9.20;99.90;;;;;;5035749;28;20047;-73
2022/10/19 07:58:45;;;;;;;22.80;19.23;;;9.40;99.90;;;;;;5034370;28;20084;-73
2022/10/19 08:01:24;;;;;;;22.02;17.92;;;9.50;99.90;;;;;;5035342;28;20068;-73
2022/10/19 08:03:51;;;;;;;24.23;18.38;;;9.70;99.90;;;;;;5033612;28;20037;-73
2022/10/19 08:06:38;;;;;;;20.25;16.67;;;9.90;99.90;;;;;;5034671;28;20043;-72
2022/10/19 08:09:05;;;;;;;25.48;17.25;;;9.90;99.90;;;;;;5032001;28;20048;-73
2022/10/19 08:11:33;;;;;;;15.85;14.27;;;10.00;99.90;;;;;;5036224;28;20521;-73
2022/10/19 08:14:03;;;;;;;14.18;12.70;;;10.00;99.90;;;;;;5027224;28;22044;-71
2022/10/19 08:16:35;;;;;;;14.90;13.60;;;10.00;99.90;;;;;;5033924;28;20045;-72
2022/10/19 08:19:06;;;;;;;14.30;13.25;;;10.20;99.90;;;;;;5029183;28;20219;-73
2022/10/19 08:21:33;;;;;;;13.77;12.77;;;10.30;99.90;;;;;;5036461;28;20045;-72
2022/10/19 08:24:00;;;;;;;14.40;13.50;;;10.30;99.90;;;;;;5031079;28;21770;-72
2022/10/19 08:26:28;;;;;;;16.00;14.68;;;10.50;99.90;;;;;;5037418;28;20589;-72
2022/10/19 08:29:04;;;;;;;15.07;14.05;;;10.60;99.90;;;;;;5032155;28;20053;-72
2022/10/19 08:31:30;;;;;;;18.20;16.98;;;10.70;99.90;;;;;;5037615;28;20124;-71
2022/10/19 08:33:57;;;;;;;18.73;17.27;;;10.60;99.90;;;;;;5026454;28;20059;-72
2022/10/19 08:36:25;;;;;;;16.35;15.10;;;10.70;99.90;;;;;;5024685;28;20319;-71
2022/10/19 08:38:51;;;;;;;17.75;16.58;;;10.80;99.90;;;;;;5022935;28;20048;-72
2022/10/19 08:41:24;;;;;;;18.58;17.23;;;11.00;99.90;;;;;;5022883;28;20497;-72
2022/10/19 08:44:26;;;;;;;18.90;17.70;;;10.90;99.90;;;;;;5026749;28;20057;-71
2022/10/19 08:47:22;;;;;;;18.70;17.60;;;10.70;99.90;;;;;;4993950;28;20616;-71
2022/10/19 08:49:50;;;;;;;17.63;15.98;;;10.80;99.90;;;;;;5020296;28;20041;-72
2022/10/19 08:52:21;;;;;;;17.58;16.08;;;10.80;99.90;;;;;;5004957;28;20132;-73
2022/10/19 08:54:49;;;;;;;18.80;17.38;;;10.70;99.90;;;;;;5020374;28;20107;-71
2022/10/19 08:57:38;;;;;;;18.45;17.17;;;10.70;99.90;;;;;;5022954;28;20047;-71
2022/10/19 09:00:39;;;;;;;18.90;17.42;;;10.80;99.90;;;;;;5017893;28;20741;-71
2022/10/19 09:03:44;;;;;;;18.67;16.83;;;10.70;99.90;;;;;;4975597;28;20045;-72
2022/10/19 09:06:33;;;;;;;18.77;17.05;;;10.80;99.90;;;;;;5011024;28;20497;-72
2022/10/19 09:09:00;;;;;;;19.00;17.58;;;10.70;99.90;;;;;;5018470;28;20041;-71
2022/10/19 09:11:35;;;;;;;20.58;18.88;;;10.70;99.90;;;;;;5009411;28;20072;-70
2022/10/19 09:14:15;;;;;;;19.75;18.02;;;10.80;99.90;;;;;;4996845;28;21014;-71
2022/10/19 09:16:42;;;;;;;21.00;19.27;;;10.90;99.90;;;;;;4998170;28;20037;-72
2022/10/19 09:19:20;;;;;;;20.63;18.85;;;10.80;99.90;;;;;;5001274;28;20604;-72
2022/10/19 09:21:55;;;;;;;20.40;18.80;;;10.70;99.90;;;;;;4997558;28;20056;-72
2022/10/19 09:24:35;;;;;;;20.88;18.77;;;10.80;99.90;;;;;;5005078;28;20040;-72
2022/10/19 09:27:04;;;;;;;22.02;20.10;;;10.80;99.90;;;;;;4995306;28;20248;-73
2022/10/19 09:29:44;;;;;;;21.10;19.42;;;10.80;99.90;;;;;;5003708;28;20045;-72
2022/10/19 09:32:18;;;;;;;21.90;19.77;;;10.80;99.90;;;;;;5014224;28;20533;-71
2022/10/19 09:34:55;;;;;;;20.77;19.17;;;10.60;99.90;;;;;;5020086;28;20141;-73
2022/10/19 09:37:23;;;;;;;20.15;18.52;;;10.80;99.90;;;;;;5021526;28;20052;-72
2022/10/19 09:39:54;;;;;;;21.95;20.35;;;11.10;99.90;;;;;;5020006;28;20143;-72
2022/10/19 09:42:31;;;;;;;23.63;21.70;;;11.10;99.90;;;;;;5022885;28;20111;-73
2022/10/19 09:45:10;;;;;;;25.85;21.55;;;11.30;99.90;;;;;;5016016;28;20057;-72
2022/10/19 09:47:40;;;;;;;21.80;19.98;;;11.20;99.90;;;;;;5021064;28;20128;-73
2022/10/19 09:50:28;;;;;;;22.58;20.60;;;11.30;99.90;;;;;;5016950;28;20223;-71
2022/10/19 09:52:57;;;;;;;24.70;22.67;;;11.20;99.90;;;;;;4998148;28;20135;-72
2022/10/19 09:55:33;;;;;;;24.80;22.42;;;11.20;99.90;;;;;;5022457;28;20073;-73
2022/10/19 09:58:14;;;;;;;23.25;21.75;;;11.30;99.90;;;;;;5016736;28;20048;-73
2022/10/19 10:00:47;;;;;;;24.10;22.65;;;11.40;99.90;;;;;;5022531;28;20148;-72
2022/10/19 10:03:34;;;;;;;24.67;22.92;;;11.40;99.90;;;;;;5019662;28;20975;-71
2022/10/19 10:06:12;;;;;;;27.48;25.15;;;11.40;99.90;;;;;;5017885;28;20091;-72
2022/10/19 10:08:51;;;;;;;27.40;25.23;;;11.30;99.90;;;;;;5026547;28;20049;-72
2022/10/19 10:11:27;;;;;;;25.60;23.02;;;11.50;99.90;;;;;;5022199;28;20217;-72
2022/10/19 10:13:55;;;;;;;24.88;22.67;;;11.40;99.90;;;;;;5014304;28;20335;-72
2022/10/19 10:16:28;;;;;;;24.52;22.80;;;11.00;99.90;;;;;;5020793;28;20052;-72
2022/10/19 10:19:11;;;;;;;26.15;24.25;;;11.00;99.90;;;;;;5020826;28;20041;-71
2022/10/19 10:21:54;;;;;;;27.38;25.00;;;11.20;99.90;;;;;;5017883;28;20044;-72
2022/10/19 10:24:24;;;;;;;25.20;23.45;;;11.10;99.90;;;;;;5017838;28;20059;-72
2022/10/19 10:26:54;;;;;;;24.15;22.42;;;11.00;99.90;;;;;;5017266;28;20629;-72
2022/10/19 10:29:52;;;;;;;24.90;22.63;;;10.90;99.90;;;;;;5019280;28;20033;-71
2022/10/19 10:32:20;;;;;;;23.90;22.50;;;11.10;99.90;;;;;;5033426;28;20029;-71
2022/10/19 10:35:15;;;;;;;23.80;22.10;;;11.10;99.90;;;;;;5016429;28;20075;-71
2022/10/19 10:37:44;;;;;;;23.00;21.60;;;11.00;99.90;;;;;;5022249;28;20033;-71
2022/10/19 10:40:28;;;;;;;24.15;22.13;;;11.00;99.90;;;;;;5018438;28;20055;-72
2022/10/19 10:43:26;;;;;;;23.88;22.08;;;11.00;99.90;;;;;;5012441;28;20036;-71
2022/10/19 10:45:53;;;;;;;24.60;22.23;;;10.90;99.90;;;;;;5013094;28;20178;-72
2022/10/19 10:48:50;;;;;;;23.48;21.50;;;10.90;99.90;;;;;;5018805;28;20041;-71
2022/10/19 10:51:30;;;;;;;24.90;22.85;;;11.10;99.90;;;;;;5013412;28;20222;-71
2022/10/19 10:54:18;;;;;;;25.17;23.30;;;11.10;99.90;;;;;;5013171;28;20084;-72
2022/10/19 10:57:10;;;;;;;25.95;24.00;;;11.10;99.90;;;;;;5012290;28;20063;-72
2022/10/19 10:59:50;;;;;;;25.25;23.65;;;11.20;99.90;;;;;;5027722;28;20055;-72
2022/10/19 11:02:33;;;;;;;26.92;24.52;;;11.30;99.90;;;;;;5030782;28;20036;-71
2022/10/19 11:05:35;;;;;;;25.90;23.70;;;11.30;99.90;;;;;;5013589;28;20077;-71
2022/10/19 11:08:13;;;;;;;24.95;23.02;;;11.10;99.90;;;;;;4997271;28;20141;-72
2022/10/19 11:10:55;;;;;;;24.23;22.80;;;11.20;99.90;;;;;;5017135;28;20144;-72
2022/10/19 11:13:34;;;;;;;25.45;23.38;;;11.20;99.90;;;;;;5016693;28;20139;-71
2022/10/19 11:16:20;;;;;;;24.38;22.75;;;11.10;99.90;;;;;;5014106;28;20099;-72
2022/10/19 11:18:52;;;;;;;25.83;23.88;;;11.20;99.90;;;;;;5016438;28;20131;-71
2022/10/19 11:21:30;;;;;;;25.80;23.75;;;11.20;99.90;;;;;;5013273;28;20045;-71
2022/10/19 11:24:31;;;;;;;25.27;23.30;;;11.40;99.90;;;;;;5005846;28;20247;-71
2022/10/19 11:27:15;;;;;;;26.02;24.15;;;11.50;99.90;;;;;;5006469;28;20136;-72
2022/10/19 11:29:51;;;;;;;25.07;22.90;;;11.60;99.90;;;;;;5018344;28;20083;-71
2022/10/19 11:32:59;;;;;;;24.90;23.17;;;11.40;99.90;;;;;;5013920;28;20571;-71
2022/10/19 11:35:48;;;;;;;24.85;23.08;;;11.30;99.90;;;;;;5007305;28;20056;-71
2022/10/19 11:38:33;;;;;;;26.27;24.42;;;11.30;99.90;;;;;;5015524;28;21090;-72
2022/10/19 11:41:09;;;;;;;25.02;22.98;;;11.40;99.90;;;;;;5011061;28;20047;-71
2022/10/19 11:44:10;;;;;;;24.52;22.67;;;11.20;99.90;;;;;;5013053;28;20588;-71
2022/10/19 11:46:59;;;;;;;24.10;22.25;;;11.20;99.90;;;;;;5018273;28;20480;-71
2022/10/19 11:49:31;;;;;;;24.58;22.88;;;11.20;99.90;;;;;;5018332;28;20642;-71
2022/10/19 11:52:10;;;;;;;24.63;22.95;;;11.10;99.90;;;;;;5014198;28;20041;-71
2022/10/19 11:55:12;;;;;;;25.48;23.73;;;11.20;99.90;;;;;;5018037;28;20068;-70
2022/10/19 11:58:14;;;;;;;26.00;24.15;;;11.30;99.90;;;;;;5020245;28;20684;-71
2022/10/19 12:00:54;;;;;;;25.48;23.70;;;11.30;99.90;;;;;;5018821;28;20158;-72
2022/10/19 12:03:47;;;;;;;25.13;23.13;;;11.70;99.90;;;;;;5016661;28;20128;-71
2022/10/19 12:06:26;;;;;;;23.10;21.52;;;12.10;99.90;;;;;;5012309;28;20555;-71
2022/10/19 12:09:12;;;;;;;23.67;22.23;;;12.50;99.90;;;;;;5019904;28;20045;-71
2022/10/19 12:12:04;;;;;;;23.23;21.65;;;12.00;99.90;;;;;;5024154;28;20064;-71
2022/10/19 12:14:35;;;;;;;24.00;21.85;;;11.60;99.90;;;;;;5017852;28;20519;-71
2022/10/19 12:17:14;;;;;;;23.45;21.85;;;11.40;99.90;;;;;;5014290;28;20844;-71
2022/10/19 12:19:49;;;;;;;22.90;21.40;;;11.10;99.90;;;;;;5019298;28;20049;-72
2022/10/19 12:22:20;;;;;;;22.38;20.58;;;11.10;99.90;;;;;;5016714;28;20541;-72
2022/10/19 12:24:49;;;;;;;21.90;20.50;;;11.20;99.90;;;;;;5001186;28;20048;-72
2022/10/19 12:27:23;;;;;;;23.70;22.15;;;11.40;99.90;;;;;;5019177;28;20136;-72
2022/10/19 12:29:51;;;;;;;24.77;22.92;;;11.60;99.90;;;;;;5023709;28;20049;-71
2022/10/19 12:32:20;;;;;;;24.40;22.70;;;11.70;99.90;;;;;;5021587;28;20116;-71
2022/10/19 12:35:18;;;;;;;23.50;22.05;;;11.70;99.90;;;;;;5014585;28;20060;-72
2022/10/19 12:38:02;;;;;;;24.30;22.30;;;11.90;99.90;;;;;;5020711;28;20216;-73
2022/10/19 12:40:40;;;;;;;25.02;22.98;;;12.00;99.90;;;;;;5018052;28;20073;-73
2022/10/19 12:43:18;;;;;;;24.15;22.30;;;12.10;99.90;;;;;;5018273;28;20597;-71
2022/10/19 12:46:17;;;;;;;24.63;22.65;;;12.10;99.90;;;;;;5020674;28;20556;-71
2022/10/19 12:48:44;;;;;;;23.48;22.08;;;12.00;99.90;;;;;;5021386;28;20041;-72
2022/10/19 12:51:14;;;;;;;24.80;22.75;;;11.70;99.90;;;;;;5018513;28;20136;-71
2022/10/19 12:53:49;;;;;;;25.13;23.20;;;11.80;99.90;;;;;;5017557;28;20049;-71
2022/10/19 12:56:24;;;;;;;24.30;22.67;;;11.70;99.90;;;;;;5020594;28;20045;-71
2022/10/19 12:59:00;;;;;;;24.88;23.00;;;11.80;99.90;;;;;;5022202;28;20049;-72
2022/10/19 13:01:43;;;;;;;23.80;21.92;;;12.00;99.90;;;;;;5019134;28;20140;-71
2022/10/19 13:04:34;;;;;;;25.00;23.23;;;11.80;99.90;;;;;;5013802;28;20076;-71
2022/10/19 13:07:05;;;;;;;24.02;22.60;;;11.80;99.90;;;;;;5016543;28;20124;-71
2022/10/19 13:09:31;;;;;;;25.95;23.88;;;12.00;99.90;;;;;;5020966;28;20047;-72